createdAt,value
2023-04-16T00:01:26.857Z,11.21
2023-04-16T00:03:53.963Z,11.09
2023-04-16T00:06:20.648Z,11.07
2023-04-16T00:08:47.113Z,11.19
2023-04-16T00:11:13.646Z,11.18
2023-04-16T00:13:40.142Z,11.21
2023-04-16T00:16:07.243Z,11.20
2023-04-16T00:18:33.718Z,11.23
2023-04-16T00:21:00.189Z,11.32
2023-04-16T00:23:26.658Z,11.32
2023-04-16T00:25:53.150Z,11.32
2023-04-16T00:28:19.676Z,11.27
2023-04-16T00:30:46.167Z,11.26
2023-04-16T00:33:12.676Z,11.27
2023-04-16T00:35:39.280Z,11.35
2023-04-16T00:38:05.788Z,11.39
2023-04-16T00:40:32.284Z,11.37
2023-04-16T00:42:58.727Z,11.23
2023-04-16T00:45:25.268Z,11.24
2023-04-16T00:47:51.811Z,11.30
2023-04-16T00:50:18.633Z,11.28
2023-04-16T00:52:48.263Z,11.37
2023-04-16T00:55:16.424Z,11.37
2023-04-16T00:57:43.129Z,11.37
2023-04-16T01:00:10.382Z,11.37
2023-04-16T01:02:37.155Z,11.42
2023-04-16T01:05:05.131Z,11.45
2023-04-16T01:07:31.865Z,11.47
2023-04-16T01:09:59.467Z,11.42
2023-04-16T01:12:25.941Z,11.43
2023-04-16T01:14:52.636Z,11.47
2023-04-16T01:17:19.124Z,11.51
2023-04-16T01:19:45.603Z,11.45
2023-04-16T01:22:12.124Z,11.58
2023-04-16T01:24:38.649Z,11.54
2023-04-16T01:27:05.173Z,11.58
2023-04-16T01:29:31.689Z,11.62
2023-04-16T01:31:58.205Z,11.51
2023-04-16T01:34:24.698Z,11.52
2023-04-16T01:36:51.192Z,11.51
2023-04-16T01:39:17.783Z,11.56
2023-04-16T01:41:44.281Z,11.57
2023-04-16T01:44:10.846Z,11.60
2023-04-16T01:46:37.869Z,11.61
2023-04-16T01:49:05.413Z,11.60
2023-04-16T01:51:31.955Z,11.58
2023-04-16T01:53:58.912Z,11.57
2023-04-16T01:56:25.604Z,11.57
2023-04-16T01:58:52.997Z,11.55
2023-04-16T02:01:19.790Z,11.61
2023-04-16T02:03:47.358Z,11.59
2023-04-16T02:06:13.998Z,11.59
2023-04-16T02:08:40.821Z,11.61
2023-04-16T02:11:07.306Z,11.67
2023-04-16T02:13:33.794Z,11.66
2023-04-16T02:16:00.293Z,11.65
2023-04-16T02:18:26.946Z,11.66
2023-04-16T02:20:53.435Z,11.70
2023-04-16T02:23:19.918Z,11.56
2023-04-16T02:25:47.365Z,11.54
2023-04-16T02:28:16.668Z,11.52
2023-04-16T02:30:43.622Z,11.54
2023-04-16T02:33:12.252Z,11.55
2023-04-16T02:35:40.073Z,11.54
2023-04-16T02:38:07.514Z,11.57
2023-04-16T02:40:33.998Z,11.27
2023-04-16T02:43:00.691Z,11.36
2023-04-16T02:45:27.239Z,11.41
2023-04-16T02:47:53.814Z,11.43
2023-04-16T02:50:20.317Z,11.50
2023-04-16T02:52:46.812Z,11.49
2023-04-16T02:55:13.328Z,11.53
2023-04-16T02:57:39.792Z,11.52
2023-04-16T03:00:06.927Z,11.57
2023-04-16T03:02:33.500Z,11.63
2023-04-16T03:05:00.046Z,11.63
2023-04-16T03:07:26.516Z,11.71
2023-04-16T03:09:53.056Z,11.83
2023-04-16T03:12:19.561Z,11.85
2023-04-16T03:14:46.057Z,11.87
2023-04-16T03:17:12.545Z,11.83
2023-04-16T03:19:39.080Z,11.86
2023-04-16T03:22:05.599Z,11.65
2023-04-16T03:24:32.089Z,11.69
2023-04-16T03:26:58.647Z,11.64
2023-04-16T03:29:25.493Z,11.72
2023-04-16T03:31:51.963Z,11.69
2023-04-16T03:34:20.519Z,11.74
2023-04-16T03:36:46.995Z,11.68
2023-04-16T03:39:13.455Z,11.64
2023-04-16T03:41:39.986Z,11.67
2023-04-16T03:44:06.482Z,11.68
2023-04-16T03:46:33.026Z,11.69
2023-04-16T03:48:59.532Z,11.72
2023-04-16T03:51:26.060Z,11.75
2023-04-16T03:53:52.533Z,11.78
2023-04-16T03:56:19.000Z,11.82
2023-04-16T03:58:45.474Z,11.78
2023-04-16T04:01:11.994Z,11.83
2023-04-16T04:03:38.604Z,11.85
2023-04-16T04:06:09.187Z,11.83
2023-04-16T04:08:35.761Z,11.86
2023-04-16T04:11:02.228Z,11.83
2023-04-16T04:13:28.771Z,11.84
2023-04-16T04:15:55.348Z,11.90
2023-04-16T04:18:21.854Z,11.89
2023-04-16T04:20:48.367Z,11.89
2023-04-16T04:23:14.860Z,11.95
2023-04-16T04:25:41.326Z,11.95
2023-04-16T04:28:07.855Z,12.03
2023-04-16T04:30:34.361Z,12.05
2023-04-16T04:33:00.897Z,12.03
2023-04-16T04:35:27.450Z,12.08
2023-04-16T04:37:53.905Z,12.05
2023-04-16T04:40:20.428Z,12.02
2023-04-16T04:42:46.953Z,11.95
2023-04-16T04:45:13.590Z,11.95
2023-04-16T04:47:40.122Z,12.09
2023-04-16T04:50:07.133Z,12.10
2023-04-16T04:52:33.613Z,12.12
2023-04-16T04:55:00.099Z,12.15
2023-04-16T04:57:26.724Z,12.12
2023-04-16T04:59:53.268Z,12.18
2023-04-16T05:02:19.890Z,12.18
2023-04-16T05:04:46.577Z,12.14
2023-04-16T05:07:13.162Z,12.18
2023-04-16T05:09:39.652Z,12.17
2023-04-16T05:12:06.232Z,12.16
2023-04-16T05:14:32.706Z,12.18
2023-04-16T05:16:59.556Z,12.17
2023-04-16T05:19:26.196Z,12.15
2023-04-16T05:21:52.685Z,12.19
2023-04-16T05:24:19.777Z,12.17
2023-04-16T05:26:46.236Z,12.18
2023-04-16T05:29:12.748Z,12.24
2023-04-16T05:31:39.322Z,12.24
2023-04-16T05:34:05.768Z,12.30
2023-04-16T05:36:32.310Z,12.33
2023-04-16T05:38:58.785Z,12.31
2023-04-16T05:41:25.323Z,12.47
2023-04-16T05:43:51.784Z,12.52
2023-04-16T05:46:18.333Z,12.56
2023-04-16T05:48:44.848Z,12.54
2023-04-16T05:51:11.340Z,12.50
2023-04-16T05:53:37.830Z,12.54
2023-04-16T05:56:04.425Z,12.56
2023-04-16T05:58:31.038Z,12.56
2023-04-16T06:00:57.545Z,12.60
2023-04-16T06:03:24.168Z,12.61
2023-04-16T06:05:50.746Z,12.63
2023-04-16T06:08:17.261Z,12.62
2023-04-16T06:10:46.031Z,12.62
2023-04-16T06:13:12.517Z,12.64
2023-04-16T06:15:39.063Z,12.66
2023-04-16T06:18:05.687Z,12.65
2023-04-16T06:20:32.294Z,12.69
2023-04-16T06:22:58.850Z,12.63
2023-04-16T06:25:25.482Z,12.65
2023-04-16T06:27:51.973Z,12.72
2023-04-16T06:30:18.937Z,12.67
2023-04-16T06:32:45.815Z,12.60
2023-04-16T06:35:12.404Z,12.74
2023-04-16T06:37:38.991Z,12.79
2023-04-16T06:40:05.929Z,12.86
2023-04-16T06:42:32.515Z,12.87
2023-04-16T06:44:59.003Z,12.86
2023-04-16T06:47:28.313Z,12.90
2023-04-16T06:49:54.832Z,13.03
2023-04-16T06:52:21.460Z,13.05
2023-04-16T06:54:48.296Z,13.10
2023-04-16T06:57:14.804Z,13.06
2023-04-16T06:59:41.351Z,13.15
2023-04-16T07:02:10.419Z,13.25
2023-04-16T07:04:37.102Z,13.32
2023-04-16T07:07:03.712Z,13.36
2023-04-16T07:09:30.368Z,13.38
2023-04-16T07:11:56.898Z,13.46
2023-04-16T07:14:23.549Z,13.45
2023-04-16T07:16:50.173Z,13.40
2023-04-16T07:19:16.788Z,13.44
2023-04-16T07:21:43.356Z,13.32
2023-04-16T07:24:10.678Z,13.17
2023-04-16T07:26:37.322Z,13.18
2023-04-16T07:29:03.824Z,13.23
2023-04-16T07:31:30.430Z,13.27
2023-04-16T07:33:58.395Z,13.27
2023-04-16T07:36:24.929Z,13.23
2023-04-16T07:38:51.452Z,13.26
2023-04-16T07:41:18.012Z,13.25
2023-04-16T07:43:44.660Z,13.22
2023-04-16T07:46:11.210Z,13.17
2023-04-16T07:48:37.747Z,13.18
2023-04-16T07:51:04.270Z,13.17
2023-04-16T07:53:30.851Z,13.22
2023-04-16T07:55:57.449Z,13.18
2023-04-16T07:58:24.186Z,13.18
2023-04-16T08:00:51.510Z,13.23
2023-04-16T08:03:21.254Z,13.21
2023-04-16T08:05:48.103Z,13.26
2023-04-16T08:08:14.742Z,13.27
2023-04-16T08:10:41.491Z,13.24
2023-04-16T08:13:08.335Z,13.31
2023-04-16T08:15:37.932Z,13.29
2023-04-16T08:18:05.286Z,13.37
2023-04-16T08:20:32.790Z,13.37
2023-04-16T08:22:59.337Z,13.42
2023-04-16T08:25:26.537Z,13.48
2023-04-16T08:27:52.999Z,13.51
2023-04-16T08:30:19.508Z,13.55
2023-04-16T08:32:48.016Z,13.54
2023-04-16T08:35:16.090Z,13.53
2023-04-16T08:37:42.639Z,13.66
2023-04-16T08:40:09.450Z,13.65
2023-04-16T08:42:52.472Z,13.72
2023-04-16T08:45:19.443Z,13.69
2023-04-16T08:47:48.192Z,13.76
2023-04-16T08:50:17.249Z,13.81
2023-04-16T08:52:51.468Z,13.92
2023-04-16T08:55:22.234Z,13.98
2023-04-16T08:57:54.175Z,13.96
2023-04-16T09:00:21.049Z,14.04
2023-04-16T09:02:48.667Z,14.04
2023-04-16T09:05:16.142Z,14.07
2023-04-16T09:07:44.831Z,14.02
2023-04-16T09:10:12.365Z,13.87
2023-04-16T09:12:41.461Z,14.05
2023-04-16T09:15:10.751Z,14.10
2023-04-16T09:17:37.333Z,14.05
2023-04-16T09:20:06.732Z,13.89
2023-04-16T09:22:33.230Z,13.80
2023-04-16T09:24:59.795Z,13.91
2023-04-16T09:27:26.866Z,13.99
2023-04-16T09:29:53.422Z,13.92
2023-04-16T09:32:26.056Z,14.00
2023-04-16T09:34:55.507Z,14.05
2023-04-16T09:37:22.053Z,14.07
2023-04-16T09:40:05.116Z,14.15
2023-04-16T09:42:34.681Z,14.21
2023-04-16T09:45:04.964Z,14.31
2023-04-16T09:47:44.470Z,14.37
2023-04-16T09:50:18.628Z,14.44
2023-04-16T09:52:49.952Z,14.40
2023-04-16T09:55:17.523Z,14.30
2023-04-16T09:57:44.331Z,14.46
2023-04-16T10:00:11.690Z,14.29
2023-04-16T10:02:44.901Z,14.32
2023-04-16T10:05:14.265Z,14.36
2023-04-16T10:07:40.780Z,14.19
2023-04-16T10:10:07.756Z,14.19
2023-04-16T10:12:34.255Z,14.19
2023-04-16T10:15:01.611Z,14.16
2023-04-16T10:17:28.709Z,14.13
2023-04-16T10:19:57.587Z,14.17
2023-04-16T10:22:35.066Z,14.11
2023-04-16T10:25:06.099Z,14.19
2023-04-16T10:27:33.506Z,14.32
2023-04-16T10:30:00.944Z,14.36
2023-04-16T10:32:28.748Z,14.29
2023-04-16T10:34:55.980Z,14.28
2023-04-16T10:37:34.612Z,14.40
2023-04-16T10:40:01.529Z,14.40
2023-04-16T10:42:28.353Z,14.33
2023-04-16T10:44:54.995Z,14.37
2023-04-16T10:47:24.787Z,14.41
2023-04-16T10:49:51.985Z,14.48
2023-04-16T10:52:18.642Z,14.33
2023-04-16T10:54:46.901Z,14.38
2023-04-16T10:57:18.258Z,14.44
2023-04-16T10:59:45.454Z,14.52
2023-04-16T11:02:21.334Z,14.50
2023-04-16T11:04:49.521Z,14.49
2023-04-16T11:07:21.431Z,14.49
2023-04-16T11:09:58.354Z,14.59
2023-04-16T11:12:27.575Z,14.60
2023-04-16T11:15:01.614Z,14.58
2023-04-16T11:17:41.873Z,14.59
2023-04-16T11:20:23.170Z,14.67
2023-04-16T11:22:51.661Z,14.47
2023-04-16T11:25:27.613Z,14.55
2023-04-16T11:27:54.170Z,14.57
2023-04-16T11:30:34.850Z,14.66
2023-04-16T11:33:12.146Z,14.71
2023-04-16T11:35:39.788Z,14.67
2023-04-16T11:38:06.817Z,14.71
2023-04-16T11:40:33.649Z,14.71
2023-04-16T11:43:16.603Z,14.85
2023-04-16T11:45:57.103Z,14.74
2023-04-16T11:48:23.979Z,14.79
2023-04-16T11:50:57.645Z,14.84
2023-04-16T11:53:24.327Z,14.82
2023-04-16T11:55:51.162Z,14.93
2023-04-16T11:58:17.901Z,14.96
2023-04-16T12:00:44.984Z,15.10
2023-04-16T12:03:11.915Z,15.17
2023-04-16T12:05:40.223Z,15.24
2023-04-16T12:08:09.368Z,15.35
2023-04-16T12:10:53.797Z,15.52
2023-04-16T12:13:20.417Z,15.66
2023-04-16T12:15:55.039Z,15.75
2023-04-16T12:18:25.478Z,15.90
2023-04-16T12:20:53.099Z,15.93
2023-04-16T12:23:28.399Z,15.95
2023-04-16T12:25:56.139Z,15.65
2023-04-16T12:28:32.935Z,15.50
2023-04-16T12:31:00.670Z,15.24
2023-04-16T12:33:27.251Z,15.37
2023-04-16T12:35:53.809Z,15.44
2023-04-16T12:38:21.767Z,15.62
2023-04-16T12:40:50.153Z,15.69
2023-04-16T12:43:17.154Z,15.80
2023-04-16T12:45:43.739Z,15.09
2023-04-16T12:48:10.286Z,14.13
2023-04-16T12:50:37.020Z,14.63
2023-04-16T12:53:03.609Z,14.83
2023-04-16T12:55:30.202Z,14.86
2023-04-16T12:57:56.838Z,15.00
2023-04-16T13:00:23.469Z,14.60
2023-04-16T13:02:50.243Z,15.01
2023-04-16T13:05:16.915Z,15.10
2023-04-16T13:07:43.399Z,14.91
2023-04-16T13:10:10.327Z,14.77
2023-04-16T13:12:36.939Z,14.69
2023-04-16T13:15:03.683Z,14.81
2023-04-16T13:17:30.432Z,14.85
2023-04-16T13:19:57.169Z,14.78
2023-04-16T13:22:23.955Z,14.85
2023-04-16T13:24:50.473Z,15.02
2023-04-16T13:27:17.017Z,14.96
2023-04-16T13:29:43.502Z,15.03
2023-04-16T13:32:10.191Z,15.13
2023-04-16T13:34:36.910Z,15.16
2023-04-16T13:37:03.407Z,15.24
2023-04-16T13:39:29.901Z,15.28
2023-04-16T13:41:56.373Z,15.33
2023-04-16T13:44:22.870Z,15.22
2023-04-16T13:46:49.354Z,15.28
2023-04-16T13:49:15.872Z,15.36
2023-04-16T13:51:45.692Z,15.32
2023-04-16T13:54:13.086Z,15.34
2023-04-16T13:56:40.057Z,15.30
2023-04-16T13:59:06.657Z,15.27
2023-04-16T14:01:33.146Z,15.29
2023-04-16T14:04:01.624Z,15.16
2023-04-16T14:06:28.179Z,15.24
2023-04-16T14:08:54.665Z,15.33
2023-04-16T14:11:21.237Z,15.26
2023-04-16T14:13:47.751Z,15.30
2023-04-16T14:16:14.365Z,15.34
2023-04-16T14:18:41.082Z,15.38
2023-04-16T14:21:08.380Z,15.29
2023-04-16T14:23:34.893Z,15.26
2023-04-16T14:26:01.366Z,15.32
2023-04-16T14:28:27.939Z,15.33
2023-04-16T14:30:54.458Z,15.29
2023-04-16T14:33:20.921Z,15.29
2023-04-16T14:35:47.428Z,15.21
2023-04-16T14:38:14.051Z,15.21
2023-04-16T14:40:40.563Z,14.94
2023-04-16T14:43:07.102Z,14.64
2023-04-16T14:45:33.745Z,14.72
2023-04-16T14:48:00.525Z,14.38
2023-04-16T14:50:27.830Z,14.60
2023-04-16T14:52:55.121Z,14.78
2023-04-16T14:55:21.910Z,14.80
2023-04-16T14:57:48.619Z,14.88
2023-04-16T15:00:15.603Z,14.94
2023-04-16T15:02:42.419Z,14.93
2023-04-16T15:05:09.930Z,14.60
2023-04-16T15:07:37.169Z,14.88
2023-04-16T15:10:04.047Z,14.85
2023-04-16T15:12:30.655Z,15.02
2023-04-16T15:14:57.187Z,15.10
2023-04-16T15:17:23.894Z,15.23
2023-04-16T15:19:50.672Z,14.94
2023-04-16T15:22:17.392Z,14.99
2023-04-16T15:24:44.163Z,14.92
2023-04-16T15:27:11.857Z,15.05
2023-04-16T15:29:39.022Z,14.91
2023-04-16T15:32:05.739Z,15.05
2023-04-16T15:34:32.531Z,14.89
2023-04-16T15:36:59.644Z,14.64
2023-04-16T15:39:27.471Z,14.68
2023-04-16T15:42:01.521Z,14.69
2023-04-16T15:44:30.520Z,14.02
2023-04-16T15:46:57.093Z,14.16
2023-04-16T15:49:23.645Z,14.21
2023-04-16T15:51:50.840Z,13.82
2023-04-16T15:54:17.434Z,14.02
2023-04-16T15:56:44.894Z,13.88
2023-04-16T15:59:11.646Z,14.16
2023-04-16T16:01:38.272Z,14.29
2023-04-16T16:04:06.426Z,14.61
2023-04-16T16:06:33.207Z,14.58
2023-04-16T16:09:00.134Z,14.75
2023-04-16T16:11:27.173Z,14.92
2023-04-16T16:13:53.680Z,14.96
2023-04-16T16:16:20.339Z,14.69
2023-04-16T16:18:47.110Z,14.54
2023-04-16T16:21:13.660Z,14.63
2023-04-16T16:23:40.151Z,14.34
2023-04-16T16:26:06.654Z,13.70
2023-04-16T16:28:33.160Z,13.42
2023-04-16T16:30:59.693Z,13.55
2023-04-16T16:33:26.194Z,13.34
2023-04-16T16:35:52.678Z,13.25
2023-04-16T16:38:19.150Z,12.95
2023-04-16T16:40:45.664Z,13.30
2023-04-16T16:43:12.213Z,13.64
2023-04-16T16:45:38.739Z,13.23
2023-04-16T16:48:05.541Z,13.23
2023-04-16T16:50:32.547Z,12.99
2023-04-16T16:52:59.849Z,12.30
2023-04-16T16:55:26.619Z,11.94
2023-04-16T16:57:53.236Z,11.43
2023-04-16T17:00:19.925Z,11.68
2023-04-16T17:02:46.646Z,11.36
2023-04-16T17:05:13.346Z,11.19
2023-04-16T17:07:39.848Z,11.11
2023-04-16T17:10:06.945Z,10.94
2023-04-16T17:12:33.827Z,10.60
2023-04-16T17:15:00.413Z,10.77
2023-04-16T17:17:27.160Z,11.24
2023-04-16T17:19:53.796Z,11.23
2023-04-16T17:22:20.312Z,11.70
2023-04-16T17:24:46.812Z,11.43
2023-04-16T17:27:13.436Z,11.16
2023-04-16T17:29:39.888Z,11.67
2023-04-16T17:32:06.359Z,11.93
2023-04-16T17:34:32.880Z,12.20
2023-04-16T17:36:59.342Z,12.08
2023-04-16T17:39:25.877Z,12.30
2023-04-16T17:41:52.495Z,12.53
2023-04-16T17:44:18.997Z,12.69
2023-04-16T17:46:45.572Z,12.56
2023-04-16T17:49:12.108Z,12.59
2023-04-16T17:51:38.632Z,12.81
2023-04-16T17:54:05.267Z,12.83
2023-04-16T17:56:31.764Z,13.10
2023-04-16T17:58:58.240Z,13.22
2023-04-16T18:01:24.788Z,13.28
2023-04-16T18:03:51.508Z,13.13
2023-04-16T18:06:18.131Z,13.19
2023-04-16T18:08:44.637Z,13.08
2023-04-16T18:11:11.247Z,12.88
2023-04-16T18:13:37.727Z,12.83
2023-04-16T18:16:04.343Z,12.92
2023-04-16T18:18:30.863Z,13.12
2023-04-16T18:20:57.331Z,13.00
2023-04-16T18:23:23.836Z,13.05
2023-04-16T18:25:50.339Z,12.66
2023-04-16T18:28:16.821Z,12.15
2023-04-16T18:30:43.362Z,12.52
2023-04-16T18:35:39.494Z,12.57
2023-04-16T18:38:06.282Z,12.27
2023-04-16T18:40:36.878Z,12.32
2023-04-16T18:43:04.010Z,12.67
2023-04-16T18:45:31.433Z,12.85
2023-04-16T18:48:00.605Z,12.98
2023-04-16T18:50:27.132Z,12.91
2023-04-16T18:52:53.947Z,12.88
2023-04-16T18:55:20.490Z,13.03
2023-04-16T18:57:47.002Z,12.56
2023-04-16T19:00:13.745Z,12.61
2023-04-16T19:02:40.363Z,12.50
2023-04-16T19:05:07.488Z,12.73
2023-04-16T19:07:34.382Z,12.77
2023-04-16T19:10:01.104Z,12.58
2023-04-16T19:12:27.806Z,12.61
2023-04-16T19:14:54.342Z,12.54
2023-04-16T19:17:20.843Z,12.64
2023-04-16T19:19:47.377Z,12.81
2023-04-16T19:22:13.990Z,12.36
2023-04-16T19:24:40.497Z,12.20
2023-04-16T19:27:06.987Z,12.35
2023-04-16T19:29:34.365Z,12.59
2023-04-16T19:32:01.408Z,12.47
2023-04-16T19:34:28.158Z,12.70
2023-04-16T19:36:54.640Z,12.62
2023-04-16T19:39:21.109Z,12.81
2023-04-16T19:41:47.624Z,12.91
2023-04-16T19:44:14.077Z,12.95
2023-04-16T19:46:40.525Z,12.75
2023-04-16T19:49:06.982Z,12.49
2023-04-16T19:51:33.462Z,12.29
2023-04-16T19:53:59.943Z,12.38
2023-04-16T19:56:26.474Z,12.72
2023-04-16T19:58:53.086Z,12.61
2023-04-16T20:01:19.654Z,12.59
2023-04-16T20:03:46.244Z,12.45
2023-04-16T20:06:12.720Z,12.70
2023-04-16T20:08:39.212Z,12.80
2023-04-16T20:11:05.695Z,12.64
2023-04-16T20:13:32.227Z,12.74
2023-04-16T20:15:58.846Z,12.56
2023-04-16T20:18:26.993Z,12.78
2023-04-16T20:20:54.729Z,12.78
2023-04-16T20:23:22.289Z,12.87
2023-04-16T20:25:48.857Z,12.93
2023-04-16T20:28:15.325Z,12.93
2023-04-16T20:30:42.029Z,13.00
2023-04-16T20:33:08.814Z,12.92
2023-04-16T20:35:35.358Z,12.78
2023-04-16T20:38:03.005Z,12.97
2023-04-16T20:40:29.448Z,13.00
2023-04-16T20:42:57.390Z,12.66
2023-04-16T20:45:23.959Z,12.81
2023-04-16T20:47:50.502Z,12.77
2023-04-16T20:50:17.020Z,12.64
2023-04-16T20:52:43.505Z,12.52
2023-04-16T20:55:09.990Z,12.51
2023-04-16T20:57:36.500Z,12.62
2023-04-16T21:00:03.086Z,12.69
2023-04-16T21:02:29.692Z,12.63
2023-04-16T21:04:56.290Z,12.63
2023-04-16T21:07:22.773Z,12.14
2023-04-16T21:09:49.242Z,12.31
2023-04-16T21:12:15.729Z,12.36
2023-04-16T21:14:42.177Z,12.18
2023-04-16T21:17:08.662Z,12.01
2023-04-16T21:19:35.142Z,12.19
2023-04-16T21:22:01.631Z,12.29
2023-04-16T21:24:28.634Z,12.17
2023-04-16T21:26:55.108Z,11.57
2023-04-16T21:29:21.571Z,11.43
2023-04-16T21:31:48.067Z,11.95
2023-04-16T21:34:14.585Z,12.08
2023-04-16T21:36:41.035Z,11.71
2023-04-16T21:39:07.524Z,11.64
2023-04-16T21:41:34.013Z,12.02
2023-04-16T21:44:00.542Z,12.23
2023-04-16T21:46:27.209Z,12.23
2023-04-16T21:48:53.736Z,11.99
2023-04-16T21:51:21.082Z,11.92
2023-04-16T21:53:47.557Z,11.88
2023-04-16T21:56:14.070Z,12.02
2023-04-16T21:58:40.541Z,12.11
2023-04-16T22:01:08.956Z,11.86
2023-04-16T22:03:37.767Z,12.17
2023-04-16T22:06:04.541Z,12.03
2023-04-16T22:08:31.569Z,12.03
2023-04-16T22:10:59.681Z,12.19
2023-04-16T22:13:26.600Z,12.01
2023-04-16T22:15:54.327Z,11.49
2023-04-16T22:18:20.836Z,11.37
2023-04-16T22:20:47.386Z,11.45
2023-04-16T22:23:13.978Z,11.43
2023-04-16T22:25:40.481Z,11.79
2023-04-16T22:28:07.096Z,11.26
2023-04-16T22:30:33.580Z,11.03
2023-04-16T22:33:00.134Z,10.96
2023-04-16T22:35:26.681Z,11.20
2023-04-16T22:37:53.175Z,11.26
2023-04-16T22:40:19.671Z,11.41
2023-04-16T22:42:46.145Z,11.40
2023-04-16T22:45:12.627Z,11.52
2023-04-16T22:47:39.240Z,11.54
2023-04-16T22:50:06.360Z,11.28
2023-04-16T22:52:32.822Z,11.09
2023-04-16T22:54:59.307Z,11.09
2023-04-16T22:57:25.824Z,11.53
2023-04-16T22:59:52.766Z,11.41
2023-04-16T23:02:20.383Z,11.69
2023-04-16T23:04:46.933Z,11.67
2023-04-16T23:07:14.136Z,11.80
2023-04-16T23:09:40.690Z,11.30
2023-04-16T23:12:07.345Z,11.26
2023-04-16T23:14:34.050Z,11.43
2023-04-16T23:17:00.515Z,11.60
2023-04-16T23:19:26.990Z,11.64
2023-04-16T23:21:53.497Z,11.26
2023-04-16T23:24:19.962Z,11.15
2023-04-16T23:26:46.605Z,10.93
2023-04-16T23:29:13.329Z,10.66
2023-04-16T23:31:40.043Z,10.52
2023-04-16T23:34:06.688Z,10.61
2023-04-16T23:36:33.188Z,10.78
2023-04-16T23:38:59.655Z,10.71
2023-04-16T23:41:26.196Z,10.66
2023-04-16T23:43:52.724Z,10.76
2023-04-16T23:46:19.351Z,10.95
2023-04-16T23:48:45.866Z,11.12
2023-04-16T23:51:12.363Z,11.35
2023-04-16T23:53:38.837Z,11.10
2023-04-16T23:56:05.693Z,10.83
2023-04-16T23:58:32.227Z,11.26
